createdAt,value
2018-07-25T00:02:07.253Z,27.24
2018-07-25T00:04:35.991Z,27.21
2018-07-25T00:07:09.878Z,27.20
2018-07-25T00:09:38.639Z,27.17
2018-07-25T00:12:07.645Z,27.15
2018-07-25T00:14:36.447Z,27.12
2018-07-25T00:17:05.355Z,27.07
2018-07-25T00:19:34.895Z,27.04
2018-07-25T00:22:03.653Z,27.00
2018-07-25T00:24:32.487Z,26.96
2018-07-25T00:27:01.292Z,26.93
2018-07-25T00:29:29.973Z,26.89
2018-07-25T00:31:58.883Z,26.88
2018-07-25T00:34:27.592Z,26.85
2018-07-25T00:36:56.403Z,26.85
2018-07-25T00:39:25.205Z,26.83
2018-07-25T00:41:54.723Z,26.83
2018-07-25T00:44:23.716Z,26.78
2018-07-25T00:46:52.381Z,26.78
2018-07-25T00:49:21.153Z,26.74
2018-07-25T00:51:49.863Z,26.71
2018-07-25T00:54:18.609Z,26.69
2018-07-25T00:56:48.045Z,26.66
2018-07-25T00:59:16.925Z,26.63
2018-07-25T01:01:46.242Z,26.59
2018-07-25T01:04:14.989Z,26.54
2018-07-25T01:06:43.864Z,26.48
2018-07-25T01:09:13.421Z,26.43
2018-07-25T01:11:42.150Z,26.39
2018-07-25T01:14:10.863Z,26.37
2018-07-25T01:16:39.765Z,26.37
2018-07-25T01:19:08.485Z,26.37
2018-07-25T01:21:37.783Z,26.35
2018-07-25T01:24:06.569Z,26.35
2018-07-25T01:26:36.149Z,26.34
2018-07-25T01:29:04.751Z,26.36
2018-07-25T01:31:33.553Z,26.35
2018-07-25T01:34:02.285Z,26.34
2018-07-25T01:36:31.225Z,26.32
2018-07-25T01:39:00.091Z,26.25
2018-07-25T01:41:28.779Z,26.23
2018-07-25T01:43:57.521Z,26.21
2018-07-25T01:46:26.383Z,26.16
2018-07-25T01:48:55.197Z,26.12
2018-07-25T01:51:23.963Z,26.10
2018-07-25T01:53:52.599Z,26.07
2018-07-25T01:56:21.441Z,26.05
2018-07-25T01:58:50.381Z,26.08
2018-07-25T02:01:19.248Z,26.10
2018-07-25T02:03:49.148Z,26.10
2018-07-25T02:06:19.100Z,26.08
2018-07-25T02:08:48.057Z,26.06
2018-07-25T02:11:16.985Z,25.99
2018-07-25T02:13:45.668Z,25.98
2018-07-25T02:16:14.182Z,25.94
2018-07-25T02:18:52.195Z,25.92
2018-07-25T02:21:20.608Z,25.84
2018-07-25T02:23:49.074Z,25.82
2018-07-25T02:26:17.595Z,25.83
2018-07-25T02:28:46.175Z,25.81
2018-07-25T02:31:14.599Z,25.82
2018-07-25T02:33:48.404Z,25.79
2018-07-25T02:36:16.856Z,25.78
2018-07-25T02:38:45.557Z,25.72
2018-07-25T02:41:13.943Z,25.65
2018-07-25T02:43:42.660Z,25.56
2018-07-25T02:46:11.108Z,25.50
2018-07-25T02:48:47.570Z,25.46
2018-07-25T02:51:15.973Z,25.42
2018-07-25T02:53:44.732Z,25.38
2018-07-25T02:56:13.192Z,25.33
2018-07-25T02:58:46.675Z,25.31
2018-07-25T03:01:15.067Z,25.28
2018-07-25T03:03:43.444Z,25.26
2018-07-25T03:06:12.236Z,25.23
2018-07-25T03:08:41.534Z,25.22
2018-07-25T03:11:10.096Z,25.19
2018-07-25T03:13:38.759Z,25.19
2018-07-25T03:16:08.362Z,25.17
2018-07-25T03:18:37.020Z,25.14
2018-07-25T03:21:05.439Z,25.13
2018-07-25T03:23:35.821Z,25.10
2018-07-25T03:26:04.394Z,25.09
2018-07-25T03:28:32.926Z,25.06
2018-07-25T03:31:01.736Z,25.04
2018-07-25T03:33:30.200Z,25.00
2018-07-25T03:35:59.727Z,24.96
2018-07-25T03:38:28.762Z,24.96
2018-07-25T03:40:57.211Z,24.94
2018-07-25T03:43:26.197Z,24.91
2018-07-25T03:45:54.715Z,24.90
2018-07-25T03:48:23.087Z,24.91
2018-07-25T03:50:51.557Z,24.91
2018-07-25T03:53:20.312Z,24.90
2018-07-25T03:55:48.750Z,24.88
2018-07-25T03:58:17.276Z,24.88
2018-07-25T04:00:45.705Z,24.89
2018-07-25T04:03:14.151Z,24.89
2018-07-25T04:05:42.607Z,24.89
2018-07-25T04:08:11.172Z,24.88
2018-07-25T04:10:41.688Z,24.88
2018-07-25T04:13:10.479Z,24.88
2018-07-25T04:15:38.965Z,24.86
2018-07-25T04:18:07.682Z,24.88
2018-07-25T04:20:36.387Z,24.86
2018-07-25T04:23:04.939Z,24.86
2018-07-25T04:25:33.330Z,24.84
2018-07-25T04:28:02.109Z,24.83
2018-07-25T04:30:30.598Z,24.81
2018-07-25T04:32:59.018Z,24.80
2018-07-25T04:35:27.462Z,24.80
2018-07-25T04:37:56.111Z,24.78
2018-07-25T04:40:24.561Z,24.78
2018-07-25T04:42:53.881Z,24.78
2018-07-25T04:45:22.373Z,24.78
2018-07-25T04:47:50.824Z,24.79
2018-07-25T04:50:19.746Z,24.79
2018-07-25T04:52:48.156Z,24.82
2018-07-25T04:55:16.596Z,24.84
2018-07-25T04:57:45.089Z,24.81
2018-07-25T05:00:13.614Z,24.71
2018-07-25T05:02:42.676Z,24.69
2018-07-25T05:05:11.390Z,24.71
2018-07-25T05:07:40.118Z,24.69
2018-07-25T05:10:08.728Z,24.68
2018-07-25T05:12:37.383Z,24.64
2018-07-25T05:15:06.686Z,24.59
2018-07-25T05:17:35.502Z,24.54
2018-07-25T05:20:03.960Z,24.55
2018-07-25T05:22:33.158Z,24.59
2018-07-25T05:25:01.626Z,24.61
2018-07-25T05:27:30.142Z,24.66
2018-07-25T05:29:58.670Z,24.70
2018-07-25T05:32:27.086Z,24.73
2018-07-25T05:34:55.548Z,24.73
2018-07-25T05:37:24.112Z,24.76
2018-07-25T05:39:52.663Z,24.79
2018-07-25T05:42:21.163Z,24.81
2018-07-25T05:44:50.067Z,24.82
2018-07-25T05:47:18.742Z,24.81
2018-07-25T05:49:47.394Z,24.85
2018-07-25T05:52:15.940Z,24.89
2018-07-25T05:54:44.908Z,24.92
2018-07-25T05:57:13.946Z,24.91
2018-07-25T05:59:42.370Z,24.93
2018-07-25T06:02:11.117Z,24.97
2018-07-25T06:04:39.537Z,25.05
2018-07-25T06:07:09.239Z,25.09
2018-07-25T06:09:37.980Z,25.10
2018-07-25T06:12:06.763Z,25.17
2018-07-25T06:14:35.526Z,25.21
2018-07-25T06:17:04.148Z,25.25
2018-07-25T06:19:32.559Z,25.28
2018-07-25T06:22:01.363Z,25.34
2018-07-25T06:24:29.808Z,25.40
2018-07-25T06:26:58.589Z,25.43
2018-07-25T06:29:27.098Z,25.49
2018-07-25T06:31:55.570Z,25.52
2018-07-25T06:34:24.002Z,25.57
2018-07-25T06:42:43.136Z,25.62
2018-07-25T06:45:11.621Z,25.65
2018-07-25T06:53:26.912Z,25.82
2018-07-25T06:55:55.605Z,25.88
2018-07-25T06:58:33.794Z,25.92
2018-07-25T07:01:02.750Z,25.95
2018-07-25T07:03:31.287Z,25.98
2018-07-25T07:05:59.798Z,26.02
2018-07-25T07:08:28.540Z,26.06
2018-07-25T07:10:57.130Z,26.10
2018-07-25T07:13:25.671Z,26.12
2018-07-25T07:15:54.314Z,26.16
2018-07-25T07:18:22.889Z,26.18
2018-07-25T07:20:51.366Z,26.21
2018-07-25T07:23:19.885Z,26.29
2018-07-25T07:25:48.540Z,26.36
2018-07-25T07:28:17.089Z,26.43
2018-07-25T07:30:45.507Z,26.49
2018-07-25T07:33:14.116Z,26.56
2018-07-25T07:35:42.813Z,26.64
2018-07-25T07:38:11.444Z,26.66
2018-07-25T07:40:39.960Z,26.73
2018-07-25T07:43:08.735Z,26.82
2018-07-25T07:45:37.225Z,26.86
2018-07-25T07:48:06.047Z,26.94
2018-07-25T07:50:34.655Z,26.97
2018-07-25T07:53:03.206Z,27.01
2018-07-25T07:55:31.717Z,27.04
2018-07-25T07:58:00.681Z,27.11
2018-07-25T08:00:29.165Z,27.16
2018-07-25T08:02:57.629Z,27.17
2018-07-25T08:05:26.434Z,27.26
2018-07-25T08:07:54.972Z,27.34
2018-07-25T08:10:23.658Z,27.37
2018-07-25T08:12:52.375Z,27.35
2018-07-25T08:15:20.923Z,27.39
2018-07-25T08:24:35.841Z,27.55
2018-07-25T08:27:04.381Z,27.61
2018-07-25T08:29:32.861Z,27.62
2018-07-25T08:32:01.413Z,27.62
2018-07-25T08:34:30.102Z,27.65
2018-07-25T08:36:58.775Z,27.70
2018-07-25T08:39:27.251Z,27.78
2018-07-25T08:41:55.714Z,27.81
2018-07-25T08:44:24.290Z,27.85
2018-07-25T08:46:52.803Z,27.94
2018-07-25T08:49:21.289Z,27.98
2018-07-25T08:51:49.741Z,28.11
2018-07-25T08:54:18.198Z,28.13
2018-07-25T08:56:47.136Z,28.07
2018-07-25T08:59:15.596Z,28.03
2018-07-25T09:01:44.282Z,28.03
2018-07-25T09:04:12.692Z,28.09
2018-07-25T09:06:41.152Z,28.07
2018-07-25T09:09:10.686Z,27.97
2018-07-25T09:11:39.610Z,28.00
2018-07-25T09:14:08.144Z,28.01
2018-07-25T09:16:36.562Z,28.14
2018-07-25T09:19:05.225Z,28.27
2018-07-25T09:21:33.830Z,28.39
2018-07-25T09:24:02.644Z,28.52
2018-07-25T09:26:31.191Z,28.60
2018-07-25T09:28:59.878Z,28.67
2018-07-25T09:31:28.573Z,28.79
2018-07-25T09:33:57.383Z,28.89
2018-07-25T09:36:25.950Z,29.02
2018-07-25T09:38:55.280Z,29.03
2018-07-25T09:41:24.184Z,29.06
2018-07-25T09:43:52.720Z,29.06
2018-07-25T09:46:21.305Z,29.06
2018-07-25T09:48:49.911Z,29.01
2018-07-25T09:51:18.698Z,28.91
2018-07-25T09:53:47.213Z,28.84
2018-07-25T09:56:15.821Z,28.80
2018-07-25T09:58:45.014Z,28.72
2018-07-25T10:01:13.723Z,28.71
2018-07-25T10:03:42.308Z,28.71
2018-07-25T10:06:10.964Z,28.66
2018-07-25T10:08:39.360Z,28.61
2018-07-25T10:11:07.860Z,28.51
2018-07-25T10:13:36.468Z,28.44
2018-07-25T10:16:04.948Z,28.40
2018-07-25T10:18:33.629Z,28.51
2018-07-25T10:21:02.352Z,28.67
2018-07-25T10:23:31.074Z,28.88
2018-07-25T10:25:59.760Z,29.20
2018-07-25T10:28:28.515Z,29.40
2018-07-25T10:30:57.078Z,29.51
2018-07-25T10:33:25.912Z,29.65
2018-07-25T10:35:54.773Z,29.48
2018-07-25T10:38:23.360Z,29.48
2018-07-25T10:40:52.080Z,29.66
2018-07-25T10:43:20.763Z,29.88
2018-07-25T10:45:49.782Z,30.11
2018-07-25T10:48:18.282Z,30.32
2018-07-25T10:50:46.800Z,30.28
2018-07-25T10:53:15.319Z,30.24
2018-07-25T10:55:43.838Z,30.33
2018-07-25T10:58:12.594Z,30.56
2018-07-25T11:00:41.477Z,30.70
2018-07-25T11:03:10.286Z,30.84
2018-07-25T11:05:38.848Z,30.87
2018-07-25T11:08:07.490Z,31.08
2018-07-25T11:10:36.204Z,31.26
2018-07-25T11:13:04.752Z,31.43
2018-07-25T11:15:33.222Z,31.56
2018-07-25T11:18:01.860Z,31.55
2018-07-25T11:20:30.431Z,31.58
2018-07-25T11:22:59.225Z,31.31
2018-07-25T11:28:02.508Z,31.25
2018-07-25T11:30:31.004Z,31.38
2018-07-25T11:32:59.479Z,31.67
2018-07-25T11:35:27.906Z,32.00
2018-07-25T11:37:57.230Z,32.23
2018-07-25T11:40:25.878Z,32.41
2018-07-25T11:42:54.798Z,32.63
2018-07-25T11:45:24.164Z,32.81
2018-07-25T11:47:52.672Z,33.20
2018-07-25T11:50:21.602Z,33.42
2018-07-25T11:52:50.352Z,33.31
2018-07-25T11:55:19.057Z,33.41
2018-07-25T11:57:47.638Z,33.30
2018-07-25T12:00:16.060Z,33.40
2018-07-25T12:02:44.538Z,33.30
2018-07-25T12:05:12.963Z,33.39
2018-07-25T12:07:41.347Z,33.35
2018-07-25T12:10:10.199Z,33.60
2018-07-25T12:12:38.670Z,33.49
2018-07-25T12:15:08.358Z,33.10
2018-07-25T12:17:37.121Z,32.83
2018-07-25T12:20:05.981Z,32.78
2018-07-25T12:22:34.356Z,33.08
2018-07-25T12:25:03.149Z,33.36
2018-07-25T12:27:31.921Z,33.80
2018-07-25T12:30:00.398Z,34.35
2018-07-25T12:32:28.827Z,34.72
2018-07-25T12:34:57.391Z,34.97
2018-07-25T12:37:25.967Z,35.18
2018-07-25T12:39:54.542Z,35.19
2018-07-25T12:42:22.949Z,35.27
2018-07-25T12:44:51.474Z,35.38
2018-07-25T12:47:19.959Z,34.80
2018-07-25T12:49:48.388Z,34.16
2018-07-25T12:52:17.099Z,33.67
2018-07-25T12:54:45.707Z,33.29
2018-07-25T12:57:14.171Z,32.90
2018-07-25T12:59:42.827Z,32.66
2018-07-25T13:02:11.294Z,32.54
2018-07-25T13:04:39.917Z,32.44
2018-07-25T13:07:08.527Z,32.18
2018-07-25T13:09:37.232Z,32.14
2018-07-25T13:12:05.997Z,32.47
2018-07-25T13:14:34.578Z,32.94
2018-07-25T13:17:03.123Z,33.02
2018-07-25T13:19:31.651Z,32.90
2018-07-25T13:22:00.188Z,32.69
2018-07-25T13:24:28.918Z,32.38
2018-07-25T13:27:02.514Z,32.32
2018-07-25T13:29:31.007Z,32.21
2018-07-25T13:31:59.473Z,32.05
2018-07-25T13:34:28.196Z,32.25
2018-07-25T13:36:56.800Z,32.65
2018-07-25T13:39:25.600Z,33.07
2018-07-25T13:41:54.046Z,33.49
2018-07-25T13:44:22.555Z,33.82
2018-07-25T13:46:51.188Z,34.08
2018-07-25T13:49:19.683Z,34.34
2018-07-25T13:51:48.140Z,34.50
2018-07-25T13:54:16.950Z,34.68
2018-07-25T13:56:45.612Z,34.84
2018-07-25T13:59:14.539Z,34.99
2018-07-25T14:01:43.103Z,34.95
2018-07-25T14:04:11.847Z,34.88
2018-07-25T14:06:40.309Z,34.91
2018-07-25T14:09:10.535Z,35.02
2018-07-25T14:11:39.383Z,35.17
2018-07-25T14:14:08.075Z,35.31
2018-07-25T14:16:36.593Z,35.32
2018-07-25T14:19:05.283Z,35.38
2018-07-25T14:21:34.065Z,35.27
2018-07-25T14:24:03.042Z,35.33
2018-07-25T14:26:31.599Z,35.38
2018-07-25T14:29:01.453Z,35.43
2018-07-25T14:31:30.123Z,35.45
2018-07-25T14:33:58.811Z,35.38
2018-07-25T14:36:27.476Z,35.12
2018-07-25T14:39:01.224Z,34.87
2018-07-25T14:41:30.180Z,34.88
2018-07-25T14:43:58.884Z,34.91
2018-07-25T14:46:28.354Z,34.96
2018-07-25T14:48:57.171Z,34.93
2018-07-25T14:51:26.851Z,34.72
2018-07-25T14:53:56.280Z,34.65
2018-07-25T14:56:24.953Z,34.67
2018-07-25T14:58:53.748Z,34.70
2018-07-25T15:01:22.598Z,34.79
2018-07-25T15:03:51.238Z,34.82
2018-07-25T15:06:19.922Z,34.86
2018-07-25T15:08:49.255Z,34.83
2018-07-25T15:11:17.993Z,34.64
2018-07-25T15:13:47.571Z,34.31
2018-07-25T15:16:17.362Z,34.01
2018-07-25T15:18:46.210Z,33.77
2018-07-25T15:21:15.022Z,33.57
2018-07-25T15:24:04.452Z,33.37
2018-07-25T15:26:33.127Z,33.18
2018-07-25T15:29:07.502Z,33.04
2018-07-25T15:31:35.914Z,32.94
2018-07-25T15:34:04.771Z,32.86
2018-07-25T15:36:46.605Z,32.77
2018-07-25T15:39:17.561Z,32.75
2018-07-25T15:41:46.985Z,32.73
2018-07-25T15:44:16.096Z,32.70
2018-07-25T15:46:45.282Z,32.66
2018-07-25T15:49:13.865Z,32.57
2018-07-25T15:51:42.341Z,32.52
2018-07-25T15:54:10.877Z,32.46
2018-07-25T15:56:39.767Z,32.41
2018-07-25T15:59:08.909Z,32.37
2018-07-25T16:01:37.724Z,32.32
2018-07-25T16:04:06.271Z,32.27
2018-07-25T16:06:34.735Z,32.21
2018-07-25T16:09:04.657Z,32.20
2018-07-25T16:11:33.498Z,32.20
2018-07-25T16:14:02.029Z,32.15
2018-07-25T16:16:30.547Z,32.10
2018-07-25T16:18:59.166Z,32.06
2018-07-25T16:21:27.672Z,32.00
2018-07-25T16:23:56.216Z,31.97
2018-07-25T16:26:24.542Z,31.94
2018-07-25T16:28:53.399Z,31.93
2018-07-25T16:31:21.904Z,31.94
2018-07-25T16:33:50.317Z,31.91
2018-07-25T16:36:18.875Z,31.90
2018-07-25T16:38:47.370Z,31.89
2018-07-25T16:41:15.873Z,31.91
2018-07-25T16:43:44.283Z,31.90
2018-07-25T16:46:12.789Z,31.89
2018-07-25T16:48:41.206Z,31.90
2018-07-25T16:51:09.703Z,31.90
2018-07-25T16:53:38.125Z,31.89
2018-07-25T16:56:06.928Z,31.89
2018-07-25T16:58:35.633Z,31.88
2018-07-25T17:01:04.089Z,31.81
2018-07-25T17:03:32.952Z,31.79
2018-07-25T17:06:01.703Z,31.74
2018-07-25T17:08:35.343Z,31.69
2018-07-25T17:11:04.021Z,31.68
2018-07-25T17:13:32.726Z,31.64
2018-07-25T17:16:01.779Z,31.59
2018-07-25T17:18:32.335Z,31.56
2018-07-25T17:21:01.137Z,31.58
2018-07-25T17:23:29.665Z,31.62
2018-07-25T17:25:58.575Z,31.60
2018-07-25T17:28:27.860Z,31.61
2018-07-25T17:30:56.818Z,31.61
2018-07-25T17:33:26.088Z,31.59
2018-07-25T17:35:55.598Z,31.58
2018-07-25T17:38:25.573Z,31.54
2018-07-25T17:40:54.705Z,31.49
2018-07-25T17:43:23.462Z,31.44
2018-07-25T17:45:52.236Z,31.39
2018-07-25T17:48:20.978Z,31.33
2018-07-25T17:50:49.902Z,31.37
2018-07-25T17:53:19.884Z,31.44
2018-07-25T17:55:48.625Z,31.43
2018-07-25T17:58:19.689Z,31.43
2018-07-25T18:00:48.413Z,31.38
2018-07-25T18:03:17.359Z,31.38
2018-07-25T18:05:46.170Z,31.33
2018-07-25T18:08:15.077Z,31.31
2018-07-25T18:10:43.566Z,31.31
2018-07-25T18:13:17.311Z,31.31
2018-07-25T18:15:45.869Z,31.27
2018-07-25T18:18:14.432Z,31.22
2018-07-25T18:20:43.142Z,31.20
2018-07-25T18:23:11.710Z,31.16
2018-07-25T18:25:44.203Z,31.13
2018-07-25T18:28:12.769Z,31.12
2018-07-25T18:30:41.553Z,31.07
2018-07-25T18:33:10.172Z,31.04
2018-07-25T18:35:39.755Z,31.02
2018-07-25T18:38:13.343Z,30.99
2018-07-25T18:40:41.994Z,30.97
2018-07-25T18:43:10.788Z,30.95
2018-07-25T18:45:39.786Z,30.94
2018-07-25T18:48:08.792Z,30.89
2018-07-25T18:50:37.461Z,30.87
2018-07-25T18:53:07.225Z,30.82
2018-07-25T18:55:36.168Z,30.81
2018-07-25T18:58:05.176Z,30.78
2018-07-25T19:00:33.702Z,30.76
2018-07-25T19:03:03.248Z,30.73
2018-07-25T19:05:32.533Z,30.70
2018-07-25T19:08:06.247Z,30.66
2018-07-25T19:10:35.057Z,30.64
2018-07-25T19:13:07.235Z,30.60
2018-07-25T19:15:36.050Z,30.57
2018-07-25T19:18:14.348Z,30.57
2018-07-25T19:20:43.164Z,30.52
2018-07-25T19:23:11.733Z,30.49
2018-07-25T19:25:40.335Z,30.47
2018-07-25T19:31:01.446Z,30.39
2018-07-25T19:33:30.274Z,30.38
2018-07-25T19:35:59.879Z,30.37
2018-07-25T19:41:29.136Z,30.29
2018-07-25T19:44:00.038Z,30.24
2018-07-25T19:46:30.163Z,30.22
2018-07-25T19:49:03.865Z,30.18
2018-07-25T19:51:32.751Z,30.14
2018-07-25T19:54:01.426Z,30.10
2018-07-25T19:56:30.859Z,30.08
2018-07-25T19:59:00.135Z,30.03
2018-07-25T20:01:28.843Z,30.00
2018-07-25T20:03:57.453Z,29.97
2018-07-25T20:06:26.310Z,29.94
2018-07-25T20:08:54.907Z,29.90
2018-07-25T20:11:23.594Z,29.86
2018-07-25T20:13:57.851Z,29.86
2018-07-25T20:16:26.730Z,29.82
2018-07-25T20:18:55.535Z,29.80
2018-07-25T20:21:24.082Z,29.80
2018-07-25T20:23:52.967Z,29.79
2018-07-25T20:26:21.543Z,29.79
2018-07-25T20:28:49.942Z,29.75
2018-07-25T20:31:18.756Z,29.68
2018-07-25T20:33:47.381Z,29.63
2018-07-25T20:36:16.163Z,29.59
2018-07-25T20:38:45.269Z,29.55
2018-07-25T20:41:13.974Z,29.52
2018-07-25T20:43:42.856Z,29.48
2018-07-25T20:46:11.602Z,29.42
2018-07-25T20:48:40.517Z,29.40
2018-07-25T20:51:09.509Z,29.39
2018-07-25T20:53:38.407Z,29.32
2018-07-25T20:56:08.447Z,29.28
2018-07-25T20:58:43.649Z,29.28
2018-07-25T21:01:13.664Z,29.27
2018-07-25T21:03:42.918Z,29.23
2018-07-25T21:06:17.833Z,29.21
2018-07-25T21:08:47.676Z,29.22
2018-07-25T21:11:16.708Z,29.14
2018-07-25T21:13:46.859Z,29.11
2018-07-25T21:16:23.294Z,29.09
2018-07-25T21:18:52.542Z,29.04
2018-07-25T21:21:23.872Z,29.02
2018-07-25T21:23:53.964Z,29.00
2018-07-25T21:26:22.666Z,28.95
2018-07-25T21:28:51.862Z,28.92
2018-07-25T21:31:20.633Z,28.86
2018-07-25T21:33:49.377Z,28.79
2018-07-25T21:36:19.130Z,28.76
2018-07-25T21:41:45.702Z,28.73
2018-07-25T21:44:14.546Z,28.70
2018-07-25T21:46:43.585Z,28.66
2018-07-25T21:52:04.976Z,28.59
2018-07-25T21:54:34.737Z,28.52
2018-07-25T21:57:04.224Z,28.51
2018-07-25T21:59:33.380Z,28.48
2018-07-25T22:02:02.178Z,28.45
2018-07-25T22:04:30.787Z,28.42
2018-07-25T22:06:59.979Z,28.41
2018-07-25T22:09:29.104Z,28.39
2018-07-25T22:11:58.488Z,28.38
2018-07-25T22:14:27.171Z,28.35
2018-07-25T22:16:55.999Z,28.33
2018-07-25T22:19:24.582Z,28.31
2018-07-25T22:21:53.226Z,28.30
2018-07-25T22:24:22.046Z,28.29
2018-07-25T22:26:51.444Z,28.28
2018-07-25T22:29:23.488Z,28.26
2018-07-25T22:31:52.469Z,28.21
2018-07-25T22:34:23.520Z,28.17
2018-07-25T22:36:53.238Z,28.15
2018-07-25T22:39:28.081Z,28.15
2018-07-25T22:42:02.395Z,28.13
2018-07-25T22:44:36.788Z,28.12
2018-07-25T22:47:24.936Z,28.10
2018-07-25T22:50:01.219Z,28.08
2018-07-25T22:52:34.916Z,28.07
2018-07-25T22:55:05.127Z,28.02
2018-07-25T23:00:38.306Z,27.95
2018-07-25T23:03:12.036Z,27.91
2018-07-25T23:05:40.934Z,27.88
2018-07-25T23:08:14.754Z,27.83
2018-07-25T23:10:43.798Z,27.83
2018-07-25T23:13:14.246Z,27.82
2018-07-25T23:15:46.353Z,27.80
2018-07-25T23:18:24.869Z,27.81
2018-07-25T23:20:58.168Z,27.79
2018-07-25T23:23:34.002Z,27.73
2018-07-25T23:26:09.050Z,27.70
2018-07-25T23:28:39.418Z,27.66
2018-07-25T23:31:09.778Z,27.62
2018-07-25T23:33:40.944Z,27.56
2018-07-25T23:36:16.228Z,27.54
2018-07-25T23:41:47.021Z,27.47
2018-07-25T23:44:21.065Z,27.44
2018-07-25T23:46:50.849Z,27.42
2018-07-25T23:49:33.351Z,27.38
2018-07-25T23:52:04.511Z,27.32
2018-07-25T23:54:36.643Z,27.29
